createdAt,value
2019-05-17T00:08:47.300Z,8.20
2019-05-17T00:18:51.456Z,8.53
2019-05-17T00:28:56.259Z,8.10
2019-05-17T00:38:59.313Z,7.57
2019-05-17T00:49:06.344Z,7.83
2019-05-17T00:59:08.401Z,7.73
2019-05-17T01:09:11.942Z,8.63
2019-05-17T01:19:16.420Z,8.83
2019-05-17T01:29:19.179Z,8.63
2019-05-17T01:39:23.247Z,9.07
2019-05-17T01:49:27.514Z,9.23
2019-05-17T01:59:30.069Z,9.60
2019-05-17T02:09:37.957Z,9.13
2019-05-17T02:19:38.857Z,8.70
2019-05-17T02:29:42.460Z,9.30
2019-05-17T02:39:58.229Z,9.17
2019-05-17T02:49:54.305Z,7.47
2019-05-17T02:59:56.900Z,9.90
2019-05-17T03:10:18.234Z,9.30
2019-05-17T03:20:08.534Z,8.80
2019-05-17T03:30:17.039Z,9.13
2019-05-17T03:40:46.344Z,9.03
2019-05-17T03:50:29.322Z,8.97
2019-05-17T04:00:35.295Z,8.97
2019-05-17T04:10:37.942Z,9.17
2019-05-17T04:20:43.325Z,15.47
2019-05-17T04:30:46.082Z,10.70
2019-05-17T04:40:49.455Z,10.07
2019-05-17T04:50:53.601Z,10.07
2019-05-17T05:00:58.050Z,9.97
2019-05-17T05:11:04.176Z,10.90
2019-05-17T05:21:08.513Z,10.70
2019-05-17T05:31:13.119Z,9.30
2019-05-17T05:41:17.156Z,10.67
2019-05-17T05:51:21.649Z,11.00
2019-05-17T06:01:25.241Z,9.57
2019-05-17T06:11:27.814Z,10.23
2019-05-17T06:21:31.941Z,9.57
2019-05-17T06:31:36.993Z,8.87
2019-05-17T06:41:41.707Z,8.87
2019-05-17T06:51:45.549Z,9.67
2019-05-17T07:01:50.274Z,7.83
2019-05-17T07:11:59.602Z,10.60
2019-05-17T07:22:05.151Z,7.40
2019-05-17T07:32:09.830Z,7.30
2019-05-17T07:42:14.001Z,7.07
2019-05-17T07:52:17.343Z,7.67
2019-05-17T08:02:20.702Z,7.13
2019-05-17T08:12:24.446Z,7.87
2019-05-17T08:22:29.382Z,8.20
2019-05-17T08:32:32.987Z,8.20
2019-05-17T08:42:35.585Z,8.90
2019-05-17T08:52:40.312Z,8.20
2019-05-17T09:02:44.723Z,9.47
2019-05-17T09:12:50.086Z,9.87
2019-05-17T09:22:52.536Z,9.63
2019-05-17T09:32:56.969Z,11.03
2019-05-17T09:43:00.645Z,10.17
2019-05-17T09:53:10.430Z,10.17
2019-05-17T10:03:13.329Z,10.40
2019-05-17T10:13:20.107Z,10.07
2019-05-17T10:23:23.290Z,10.57
2019-05-17T10:33:26.642Z,8.87
2019-05-17T10:43:31.711Z,9.47
2019-05-17T10:53:34.284Z,8.93
2019-05-17T11:03:39.732Z,8.57
2019-05-17T11:13:43.082Z,8.67
2019-05-17T11:23:47.286Z,9.07
2019-05-17T11:33:49.867Z,8.07
2019-05-17T11:43:52.519Z,8.13
2019-05-17T11:53:56.994Z,6.67
2019-05-17T12:04:02.291Z,7.37
2019-05-17T12:14:07.480Z,7.53
2019-05-17T12:24:10.050Z,7.07
2019-05-17T12:34:12.615Z,9.50
2019-05-17T12:44:15.177Z,6.97
2019-05-17T12:54:17.754Z,6.80
2019-05-17T13:04:20.335Z,9.37
2019-05-17T13:14:27.625Z,7.63
2019-05-17T13:24:34.272Z,7.40
2019-05-17T13:34:40.211Z,11.33
2019-05-17T13:44:45.805Z,6.30
2019-05-17T13:54:49.586Z,6.33
2019-05-17T14:04:54.481Z,5.87
2019-05-17T14:14:58.449Z,8.20
2019-05-17T14:25:01.810Z,6.00
2019-05-17T14:35:06.577Z,10.43
2019-05-17T14:45:12.388Z,5.03
2019-05-17T14:55:16.452Z,7.47
2019-05-17T15:05:19.182Z,6.20
2019-05-17T15:15:26.745Z,6.73
2019-05-17T15:25:30.450Z,9.37
2019-05-17T15:35:33.787Z,8.80
2019-05-17T15:45:37.114Z,7.93
2019-05-17T15:55:41.651Z,12.07
2019-05-17T16:05:48.776Z,11.83
2019-05-17T16:15:52.938Z,9.53
2019-05-17T16:25:56.224Z,7.30
2019-05-17T16:35:59.117Z,7.70
2019-05-17T16:46:06.966Z,6.87
2019-05-17T16:56:09.655Z,5.97
2019-05-17T17:06:12.971Z,7.03
2019-05-17T17:16:18.060Z,5.80
2019-05-17T17:26:21.324Z,5.27
2019-05-17T17:36:24.217Z,7.53
2019-05-17T17:46:27.563Z,8.03
2019-05-17T17:56:32.486Z,9.03
2019-05-17T18:06:35.654Z,10.43
2019-05-17T18:16:38.225Z,9.40
2019-05-17T18:26:41.054Z,12.23
2019-05-17T18:36:43.676Z,12.83
2019-05-17T18:46:51.228Z,14.10
2019-05-17T18:56:54.008Z,13.90
2019-05-17T19:06:57.612Z,12.93
2019-05-17T19:17:02.470Z,10.07
2019-05-17T19:27:08.066Z,8.80
2019-05-17T19:37:10.647Z,11.57
2019-05-17T19:47:14.786Z,11.47
2019-05-17T19:57:19.871Z,13.37
2019-05-17T20:07:23.939Z,10.90
2019-05-17T20:17:28.678Z,11.50
2019-05-17T20:27:31.993Z,12.80
2019-05-17T20:37:34.577Z,10.90
2019-05-17T20:47:37.680Z,12.83
2019-05-17T20:57:41.125Z,13.60
2019-05-17T21:07:44.799Z,14.07
2019-05-17T21:17:49.130Z,12.47
2019-05-17T21:27:54.157Z,14.73
2019-05-17T21:37:57.480Z,14.80
2019-05-17T21:48:00.510Z,15.67
2019-05-17T21:58:05.012Z,17.77
2019-05-17T22:08:08.448Z,16.53
2019-05-17T22:18:11.012Z,15.10
2019-05-17T22:28:14.641Z,16.50
2019-05-17T22:38:18.153Z,15.00
2019-05-17T22:48:20.847Z,15.40
2019-05-17T22:58:24.002Z,17.93
2019-05-17T23:08:27.426Z,16.27
2019-05-17T23:18:34.103Z,15.40
2019-05-17T23:28:36.669Z,15.90
2019-05-17T23:38:39.541Z,13.97
2019-05-17T23:48:44.478Z,14.07
2019-05-17T23:58:48.547Z,13.93
